Time;durP1;ratioP1;P1;durP2;ratioP2;P2;SDS_P1;SDS_P2;PMS_P1;PMS_P2;Temp;Humidity;BMP_temperature;BMP_pressure;BME280_temperature;BME280_humidity;BME280_pressure;Samples;Min_cycle;Max_cycle;Signal;HPM_P1;HPM_P2
2022/03/28 00:09:21;;;;;;;6.90;1.73;;;8.60;99.90;;;;;;20797775;28;20087;-80
2022/03/28 00:19:22;;;;;;;6.85;1.00;;;8.40;99.90;;;;;;20815708;28;20061;-82
2022/03/28 00:29:23;;;;;;;3.63;1.02;;;8.40;99.90;;;;;;20834349;28;20465;-81
2022/03/28 00:39:24;;;;;;;4.60;0.70;;;8.30;99.90;;;;;;20827538;28;20109;-80
2022/03/28 00:49:26;;;;;;;6.97;1.00;;;8.20;99.90;;;;;;20813097;28;20118;-81
2022/03/28 00:59:31;;;;;;;7.05;1.30;;;8.10;99.90;;;;;;20820275;28;20126;-81
2022/03/28 01:09:34;;;;;;;4.87;0.83;;;8.00;99.90;;;;;;20809156;28;20109;-81
2022/03/28 01:19:35;;;;;;;3.90;0.98;;;7.90;99.90;;;;;;20803059;28;20064;-81
2022/03/28 01:29:36;;;;;;;8.40;3.55;;;7.90;99.90;;;;;;20837793;28;20076;-82
2022/03/28 01:39:37;;;;;;;7.55;1.17;;;7.70;99.90;;;;;;20813353;28;20073;-81
2022/03/28 01:49:38;;;;;;;3.58;0.90;;;7.70;99.90;;;;;;20809169;28;20521;-81
2022/03/28 01:59:40;;;;;;;4.97;1.15;;;7.60;99.90;;;;;;20813254;28;20769;-80
2022/03/28 02:09:41;;;;;;;2.45;0.77;;;7.50;99.90;;;;;;20854456;28;20125;-81
2022/03/28 02:19:42;;;;;;;8.88;1.02;;;7.40;99.90;;;;;;20828274;28;20061;-81
2022/03/28 02:29:44;;;;;;;9.73;1.02;;;7.30;99.90;;;;;;20822804;28;20136;-81
2022/03/28 02:39:45;;;;;;;3.78;1.13;;;7.30;99.90;;;;;;20812616;28;20677;-81
2022/03/28 02:49:46;;;;;;;6.30;1.38;;;7.20;99.90;;;;;;20832629;28;20057;-81
2022/03/28 02:59:48;;;;;;;6.03;1.25;;;7.00;99.90;;;;;;20828341;28;20107;-81
2022/03/28 03:09:49;;;;;;;7.68;1.38;;;7.00;99.90;;;;;;20826021;28;20136;-81
2022/03/28 03:19:51;;;;;;;3.60;1.48;;;6.90;99.90;;;;;;20831439;28;20133;-81
2022/03/28 03:29:52;;;;;;;7.97;1.85;;;6.70;99.90;;;;;;20835566;28;20128;-81
2022/03/28 03:39:54;;;;;;;3.85;1.77;;;6.70;99.90;;;;;;20831343;28;20109;-81
2022/03/28 03:49:55;;;;;;;5.22;1.85;;;6.60;99.90;;;;;;20815197;28;20100;-81
2022/03/28 03:59:56;;;;;;;5.25;1.45;;;6.50;99.90;;;;;;20828439;28;20125;-81
2022/03/28 04:10:01;;;;;;;8.45;2.42;;;6.50;99.90;;;;;;20810381;28;20041;-81
2022/03/28 04:20:02;;;;;;;5.85;1.83;;;6.40;99.90;;;;;;20819237;28;20396;-81
2022/03/28 04:30:13;;;;;;;7.40;1.73;;;6.30;99.90;;;;;;20822123;28;20060;-81
2022/03/28 04:40:17;;;;;;;6.22;1.67;;;6.20;99.90;;;;;;20819471;28;20047;-82
2022/03/28 04:50:18;;;;;;;4.20;1.38;;;6.10;99.90;;;;;;20838269;28;20105;-81
2022/03/28 05:00:21;;;;;;;6.68;2.15;;;5.90;99.90;;;;;;20831724;28;20041;-81
2022/03/28 05:10:23;;;;;;;6.18;1.67;;;5.60;99.90;;;;;;20812326;28;20116;-81
2022/03/28 05:20:24;;;;;;;6.18;2.35;;;5.40;99.90;;;;;;20891937;28;20045;-81
2022/03/28 05:30:25;;;;;;;4.70;2.78;;;5.20;99.90;;;;;;20806141;28;20121;-81
2022/03/28 05:40:27;;;;;;;7.57;2.72;;;5.20;99.90;;;;;;20820422;28;20117;-81
2022/03/28 05:50:28;;;;;;;5.22;1.85;;;5.20;99.90;;;;;;20813467;28;20642;-81
2022/03/28 06:00:29;;;;;;;5.00;2.47;;;5.30;99.90;;;;;;20799747;28;20109;-81
2022/03/28 06:10:30;;;;;;;4.55;2.08;;;5.20;99.90;;;;;;20827353;28;20037;-81
2022/03/28 06:20:32;;;;;;;5.40;1.83;;;5.20;99.90;;;;;;20807964;28;20060;-82
2022/03/28 06:30:33;;;;;;;5.97;2.45;;;5.30;99.90;;;;;;20856350;28;20597;-81
2022/03/28 06:40:35;;;;;;;7.00;2.40;;;5.40;99.90;;;;;;20816415;28;20053;-81
2022/03/28 06:50:36;;;;;;;4.82;2.20;;;5.40;99.90;;;;;;20833992;28;20049;-81
2022/03/28 07:00:38;;;;;;;5.85;1.70;;;5.50;99.90;;;;;;20842473;28;20059;-81
2022/03/28 07:10:42;;;;;;;4.43;1.88;;;5.60;99.90;;;;;;20853940;28;20041;-82
2022/03/28 07:20:43;;;;;;;10.32;1.92;;;5.80;99.90;;;;;;20865028;28;20037;-81
2022/03/28 07:30:45;;;;;;;5.50;2.30;;;5.80;99.90;;;;;;20838153;28;20046;-81
2022/03/28 07:40:46;;;;;;;5.68;1.98;;;5.80;99.90;;;;;;20858723;28;20055;-81
2022/03/28 07:50:49;;;;;;;5.82;3.17;;;5.80;99.90;;;;;;20828233;28;20041;-82
2022/03/28 08:00:51;;;;;;;3.80;1.58;;;5.90;99.90;;;;;;20854615;28;20045;-82
2022/03/28 08:10:53;;;;;;;4.25;1.80;;;6.20;99.90;;;;;;20851054;28;20124;-81
2022/03/28 08:20:54;;;;;;;8.32;2.10;;;6.30;99.90;;;;;;20854451;28;20049;-81
2022/03/28 08:30:56;;;;;;;6.00;2.75;;;6.30;99.90;;;;;;20855056;28;20135;-81
2022/03/28 08:40:59;;;;;;;4.90;2.15;;;6.40;99.90;;;;;;20855160;28;20061;-81
2022/03/28 08:51:02;;;;;;;7.45;2.08;;;6.70;99.90;;;;;;20824432;28;20061;-81
2022/03/28 09:01:05;;;;;;;5.93;2.92;;;6.90;99.90;;;;;;20842751;28;20441;-81
2022/03/28 09:11:20;;;;;;;5.05;1.85;;;7.10;99.90;;;;;;20839498;28;20038;-80
2022/03/28 09:21:25;;;;;;;8.32;2.55;;;7.30;99.90;;;;;;20840063;28;20057;-81
2022/03/28 09:31:32;;;;;;;6.65;2.85;;;7.60;99.90;;;;;;20846158;28;20033;-82
2022/03/28 09:41:33;;;;;;;8.90;2.40;;;7.80;99.90;;;;;;20844302;28;20041;-81
2022/03/28 09:51:36;;;;;;;9.30;2.50;;;8.20;99.90;;;;;;20842611;28;20497;-81
2022/03/28 10:01:42;;;;;;;7.60;2.65;;;8.20;99.90;;;;;;20843148;28;20076;-81
2022/03/28 10:11:45;;;;;;;6.40;2.50;;;8.30;99.90;;;;;;20826251;28;20033;-80
2022/03/28 10:21:46;;;;;;;4.40;2.03;;;8.50;99.90;;;;;;20844569;28;20053;-81
2022/03/28 10:31:55;;;;;;;6.32;2.40;;;8.90;99.90;;;;;;20865071;28;20041;-82
2022/03/28 10:42:08;;;;;;;9.57;3.63;;;9.40;99.90;;;;;;20838233;28;20057;-81
2022/03/28 10:52:15;;;;;;;6.32;2.42;;;9.80;99.90;;;;;;20870757;28;20041;-80
2022/03/28 11:02:30;;;;;;;5.03;2.03;;;10.00;99.90;;;;;;20858165;28;20060;-81
2022/03/28 11:12:34;;;;;;;6.95;2.03;;;10.20;99.90;;;;;;20838753;28;20033;-80
2022/03/28 11:22:38;;;;;;;5.30;2.33;;;10.90;99.90;;;;;;20835977;28;20040;-81
2022/03/28 11:32:39;;;;;;;6.72;2.08;;;11.50;99.90;;;;;;20847758;28;20052;-80
2022/03/28 11:42:49;;;;;;;5.70;2.53;;;12.10;99.90;;;;;;20828500;28;20060;-82
2022/03/28 11:52:50;;;;;;;5.93;2.13;;;12.20;99.90;;;;;;20849317;28;20047;-80
2022/03/28 12:02:55;;;;;;;6.25;2.25;;;13.00;99.90;;;;;;20846726;28;20034;-81
2022/03/28 12:12:59;;;;;;;7.30;2.42;;;13.20;99.90;;;;;;20836846;28;20077;-81
2022/03/28 12:23:03;;;;;;;8.35;2.78;;;14.20;99.90;;;;;;20834548;28;20087;-82
2022/03/28 12:33:17;;;;;;;5.45;2.97;;;14.80;99.90;;;;;;20823572;28;20037;-82
2022/03/28 12:43:23;;;;;;;4.78;2.45;;;14.90;99.90;;;;;;20822335;28;20075;-82
2022/03/28 12:53:29;;;;;;;7.05;3.58;;;14.80;99.90;;;;;;20818606;28;20067;-82
2022/03/28 13:03:37;;;;;;;4.35;2.00;;;15.10;99.90;;;;;;20801584;28;20045;-82
2022/03/28 13:13:38;;;;;;;7.05;2.50;;;15.60;99.90;;;;;;20815595;28;20040;-82
2022/03/28 13:23:39;;;;;;;4.55;1.77;;;16.00;99.90;;;;;;20787315;28;20049;-81
2022/03/28 13:33:42;;;;;;;7.03;1.50;;;15.80;99.90;;;;;;20797238;28;20115;-81
2022/03/28 13:43:43;;;;;;;4.90;2.30;;;15.80;99.90;;;;;;20800401;28;20056;-81
2022/03/28 13:53:44;;;;;;;9.38;2.00;;;17.00;99.90;;;;;;20817556;28;20508;-82
2022/03/28 14:03:45;;;;;;;4.68;1.55;;;16.90;99.90;;;;;;20815184;28;20037;-81
2022/03/28 14:13:46;;;;;;;6.10;1.90;;;16.80;99.90;;;;;;20803363;28;20055;-81
2022/03/28 14:23:47;;;;;;;6.35;2.22;;;16.40;99.90;;;;;;20799497;28;20045;-81
2022/03/28 14:33:48;;;;;;;3.92;1.88;;;16.00;99.90;;;;;;20794432;28;20050;-81
2022/03/28 14:43:50;;;;;;;4.68;1.75;;;15.50;99.90;;;;;;20799340;28;20504;-81
2022/03/28 14:53:51;;;;;;;4.55;2.10;;;14.90;99.90;;;;;;20802088;28;20135;-81
2022/03/28 15:03:57;;;;;;;6.05;2.28;;;14.50;99.90;;;;;;20821260;28;20060;-82
2022/03/28 15:13:59;;;;;;;13.45;3.03;;;14.40;99.90;;;;;;20819427;28;20578;-81
2022/03/28 15:24:00;;;;;;;6.93;2.38;;;14.00;99.90;;;;;;20844316;28;20041;-81
2022/03/28 15:34:06;;;;;;;5.43;2.00;;;13.70;99.90;;;;;;20815121;28;20110;-81
2022/03/28 15:44:10;;;;;;;6.72;2.38;;;13.70;99.90;;;;;;20806551;28;20128;-81
2022/03/28 15:54:12;;;;;;;8.05;2.70;;;13.80;99.90;;;;;;20829170;28;20037;-82
2022/03/28 16:04:14;;;;;;;6.80;2.63;;;13.70;99.90;;;;;;20809426;28;20045;-81
2022/03/28 16:14:17;;;;;;;6.45;2.22;;;13.50;99.90;;;;;;20797146;28;20093;-81
2022/03/28 16:24:18;;;;;;;8.07;2.25;;;13.60;99.90;;;;;;20815557;28;20097;-80
2022/03/28 16:34:20;;;;;;;7.18;2.50;;;13.30;99.90;;;;;;20810354;28;20575;-80
2022/03/28 16:44:21;;;;;;;4.80;1.90;;;13.10;99.90;;;;;;20800316;28;20048;-80
2022/03/28 16:54:22;;;;;;;9.00;2.42;;;13.10;99.90;;;;;;20793419;28;20053;-80
2022/03/28 17:04:27;;;;;;;5.95;2.08;;;13.20;99.90;;;;;;20813482;28;20045;-81
2022/03/28 17:14:28;;;;;;;5.93;1.73;;;13.00;99.90;;;;;;20821635;28;20137;-81
2022/03/28 17:24:29;;;;;;;11.02;2.22;;;12.70;99.90;;;;;;20798111;28;20652;-81
2022/03/28 17:34:31;;;;;;;5.63;2.10;;;12.60;99.90;;;;;;20822461;28;20052;-81
2022/03/28 17:44:33;;;;;;;7.18;2.67;;;12.30;99.90;;;;;;20790645;28;20049;-81
2022/03/28 17:54:34;;;;;;;7.97;2.65;;;12.00;99.90;;;;;;20803725;28;20097;-81
2022/03/28 18:04:35;;;;;;;6.13;2.30;;;11.80;99.90;;;;;;20813450;28;20133;-80
2022/03/28 18:14:38;;;;;;;7.95;3.08;;;11.80;99.90;;;;;;20815914;28;20038;-80
2022/03/28 18:24:41;;;;;;;6.63;2.88;;;11.50;99.90;;;;;;20824914;28;20045;-81
2022/03/28 18:34:43;;;;;;;7.75;3.50;;;11.20;99.90;;;;;;20810126;28;20061;-80
2022/03/28 18:44:44;;;;;;;10.50;3.28;;;10.90;99.90;;;;;;20804116;28;20088;-82
2022/03/28 18:54:46;;;;;;;8.55;3.25;;;10.80;99.90;;;;;;20818919;28;20092;-80
2022/03/28 19:04:47;;;;;;;7.53;3.30;;;10.60;99.90;;;;;;20823656;28;20084;-81
2022/03/28 19:14:48;;;;;;;8.40;3.17;;;10.40;99.90;;;;;;20897491;28;20105;-80
2022/03/28 19:24:49;;;;;;;9.25;3.10;;;10.20;99.90;;;;;;20817500;28;20658;-80
2022/03/28 19:34:51;;;;;;;11.38;4.35;;;10.10;99.90;;;;;;20822252;28;20045;-81
2022/03/28 19:44:52;;;;;;;6.90;3.40;;;10.10;99.90;;;;;;20821495;28;20150;-82
2022/03/28 19:54:53;;;;;;;9.23;3.22;;;10.00;99.90;;;;;;20815723;28;20382;-80
2022/03/28 20:04:55;;;;;;;7.55;3.67;;;10.00;99.90;;;;;;20805361;28;20073;-81
2022/03/28 20:14:57;;;;;;;13.65;4.68;;;10.00;99.90;;;;;;20815747;28;20038;-81
2022/03/28 20:25:03;;;;;;;12.27;4.50;;;9.80;99.90;;;;;;20820013;28;20049;-81
2022/03/28 20:35:07;;;;;;;13.02;4.93;;;9.80;99.90;;;;;;20815537;28;20096;-80
2022/03/28 20:45:08;;;;;;;13.75;4.75;;;9.80;99.90;;;;;;20820956;28;20408;-81
2022/03/28 20:55:09;;;;;;;13.88;5.93;;;9.60;99.90;;;;;;20801056;28;20661;-81
2022/03/28 21:05:10;;;;;;;11.27;4.80;;;9.60;99.90;;;;;;20791476;28;20057;-81
2022/03/28 21:15:11;;;;;;;15.52;4.85;;;9.60;99.90;;;;;;20794243;28;20489;-81
2022/03/28 21:25:12;;;;;;;16.83;6.32;;;9.60;99.90;;;;;;20811041;28;20039;-80
2022/03/28 21:35:14;;;;;;;14.93;5.97;;;9.50;99.90;;;;;;20801076;28;20048;-81
2022/03/28 21:45:15;;;;;;;14.73;6.47;;;9.50;99.90;;;;;;20795238;28;20053;-80
2022/03/28 21:55:16;;;;;;;15.48;6.30;;;9.40;99.90;;;;;;20798089;28;20052;-81
2022/03/28 22:05:17;;;;;;;19.70;7.65;;;9.50;99.90;;;;;;20788927;28;20044;-81
2022/03/28 22:15:20;;;;;;;21.42;7.07;;;9.60;99.90;;;;;;20812000;28;20045;-80
2022/03/28 22:25:21;;;;;;;19.38;7.47;;;9.50;99.90;;;;;;20792409;28;20041;-80
2022/03/28 22:35:22;;;;;;;20.38;7.47;;;9.40;99.90;;;;;;20814423;28;20056;-81
2022/03/28 22:45:23;;;;;;;21.27;7.65;;;9.40;99.90;;;;;;20828550;28;20053;-81
2022/03/28 22:55:24;;;;;;;19.45;7.20;;;9.30;99.90;;;;;;20804501;28;20104;-81
2022/03/28 23:05:26;;;;;;;16.58;7.20;;;9.30;99.90;;;;;;20818008;28;20045;-80
2022/03/28 23:15:27;;;;;;;18.05;6.72;;;9.10;99.90;;;;;;20806004;28;20041;-81
2022/03/28 23:25:29;;;;;;;19.20;7.65;;;9.10;99.90;;;;;;20824379;28;20144;-81
2022/03/28 23:35:30;;;;;;;20.73;7.55;;;9.00;99.90;;;;;;20823022;28;20033;-81
2022/03/28 23:45:31;;;;;;;19.80;8.30;;;8.90;99.90;;;;;;20825554;28;20513;-80
2022/03/28 23:55:32;;;;;;;26.05;8.85;;;8.90;99.90;;;;;;20804240;28;20045;-81
